Time;durP1;ratioP1;P1;durP2;ratioP2;P2;SDS_P1;SDS_P2;PMS_P1;PMS_P2;Temp;Humidity;BMP_temperature;BMP_pressure;BME280_temperature;BME280_humidity;BME280_pressure;Samples;Min_cycle;Max_cycle;Signal;HPM_P1;HPM_P2
2024/03/06 00:01:39;;;;;;;5.18;2.95;;;;;;;8.62;78.51;101341.41;5069326;28;20613;-68
2024/03/06 00:04:05;;;;;;;8.88;2.60;;;;;;;8.57;78.48;101338.13;5091733;28;20052;-67
2024/03/06 00:06:30;;;;;;;4.15;2.80;;;;;;;8.58;78.73;101343.16;5089469;28;20053;-68
2024/03/06 00:08:56;;;;;;;6.35;3.17;;;;;;;8.56;79.55;101337.34;5086320;28;20044;-67
2024/03/06 00:11:21;;;;;;;6.85;2.83;;;;;;;8.62;79.28;101343.28;5082853;28;20032;-67
2024/03/06 00:13:47;;;;;;;3.03;2.10;;;;;;;8.56;79.52;101348.06;5082030;28;20032;-68
2024/03/06 00:16:13;;;;;;;3.95;2.30;;;;;;;8.56;79.50;101345.38;5088222;28;20020;-67
2024/03/06 00:18:40;;;;;;;6.25;3.35;;;;;;;8.60;79.25;101345.53;5084379;28;20100;-67
2024/03/06 00:21:06;;;;;;;6.70;2.67;;;;;;;8.61;79.53;101344.41;5084734;28;20020;-67
2024/03/06 00:23:32;;;;;;;5.93;2.70;;;;;;;8.48;79.80;101354.25;5083176;28;20036;-67
2024/03/06 00:25:58;;;;;;;7.30;2.67;;;;;;;8.36;80.33;101354.19;5086521;28;20038;-68
2024/03/06 00:28:24;;;;;;;5.88;2.85;;;;;;;8.46;79.66;101353.03;5087120;28;20028;-67
2024/03/06 00:30:49;;;;;;;4.80;2.42;;;;;;;8.41;80.11;101345.13;5084683;28;21274;-68
2024/03/06 00:33:15;;;;;;;5.00;2.97;;;;;;;8.29;80.55;101350.41;5087733;28;20114;-67
2024/03/06 00:35:40;;;;;;;7.35;2.45;;;;;;;8.33;81.07;101354.81;5089537;28;20070;-67
2024/03/06 00:38:06;;;;;;;6.57;2.33;;;;;;;8.44;80.37;101353.31;5089803;28;20544;-67
2024/03/06 00:40:32;;;;;;;6.35;2.30;;;;;;;8.47;80.38;101351.91;5085995;28;20028;-67
2024/03/06 00:42:58;;;;;;;9.73;2.42;;;;;;;8.52;80.12;101362.44;5101363;27;20044;-68
2024/03/06 00:45:24;;;;;;;3.42;2.53;;;;;;;8.41;80.31;101363.94;5084151;28;20032;-68
2024/03/06 00:47:49;;;;;;;2.95;2.25;;;;;;;8.41;80.94;101361.25;5074178;28;20043;-67
2024/03/06 00:50:16;;;;;;;5.35;2.63;;;;;;;8.34;80.86;101367.13;5071128;28;20039;-67
2024/03/06 00:52:45;;;;;;;6.57;2.53;;;;;;;8.43;80.68;101375.13;5089625;28;20031;-68
2024/03/06 00:55:10;;;;;;;3.90;2.00;;;;;;;8.47;81.00;101376.84;5085625;28;20033;-68
2024/03/06 00:57:36;;;;;;;7.15;2.50;;;;;;;8.45;81.09;101379.06;5084955;28;20032;-67
2024/03/06 01:00:10;;;;;;;8.32;2.40;;;;;;;8.26;81.27;101386.72;5084472;28;20027;-67
2024/03/06 01:02:36;;;;;;;4.50;2.47;;;;;;;8.52;80.61;101381.22;5087388;28;20048;-67
2024/03/06 01:05:06;;;;;;;4.25;2.30;;;;;;;8.48;80.90;101383.78;5085685;28;20034;-67
2024/03/06 01:07:32;;;;;;;6.22;2.92;;;;;;;8.47;81.06;101390.28;5087791;28;20036;-67
2024/03/06 01:09:58;;;;;;;2.97;2.17;;;;;;;8.41;80.75;101386.19;5086183;28;20393;-67
2024/03/06 01:12:24;;;;;;;3.40;2.13;;;;;;;8.41;80.86;101391.56;5085646;28;20089;-68
2024/03/06 01:14:50;;;;;;;2.55;1.83;;;;;;;8.31;80.26;101393.78;5084594;28;20032;-68
2024/03/06 01:17:15;;;;;;;3.85;2.35;;;;;;;8.25;81.16;101395.88;5085079;28;20034;-67
2024/03/06 01:19:43;;;;;;;5.28;2.25;;;;;;;8.19;81.11;101389.06;5074950;28;20493;-67
2024/03/06 01:22:09;;;;;;;4.30;2.53;;;;;;;8.17;80.87;101402.00;5070006;28;20028;-67
2024/03/06 01:24:35;;;;;;;3.55;2.50;;;;;;;8.16;81.34;101397.75;5080553;28;20020;-67
2024/03/06 01:27:02;;;;;;;4.82;2.17;;;;;;;8.15;81.33;101396.16;5085949;28;20042;-70
2024/03/06 01:29:28;;;;;;;6.18;2.38;;;;;;;8.26;80.96;101396.66;5082137;28;20024;-68
2024/03/06 01:31:54;;;;;;;4.40;2.20;;;;;;;8.21;80.60;101400.25;5119060;27;20406;-67
2024/03/06 01:34:19;;;;;;;3.42;2.40;;;;;;;8.33;80.26;101403.09;5085855;28;20085;-67
2024/03/06 01:36:45;;;;;;;5.95;1.98;;;;;;;8.15;81.17;101398.84;5084108;28;20028;-67
2024/03/06 01:39:11;;;;;;;2.40;1.85;;;;;;;8.21;80.64;101401.06;5083935;28;20016;-67
2024/03/06 01:41:36;;;;;;;3.45;2.38;;;;;;;8.29;80.70;101402.16;5065698;28;20044;-67
2024/03/06 01:44:03;;;;;;;3.85;2.13;;;;;;;8.31;80.70;101399.94;5085455;28;20032;-67
2024/03/06 01:46:29;;;;;;;3.63;2.40;;;;;;;8.31;80.30;101408.00;5085263;28;20035;-67
2024/03/06 01:48:55;;;;;;;2.88;1.67;;;;;;;8.37;79.73;101416.66;5079407;28;20026;-67
2024/03/06 01:51:21;;;;;;;4.07;2.38;;;;;;;8.30;79.87;101417.19;5089949;28;20052;-68
2024/03/06 01:53:47;;;;;;;3.50;1.90;;;;;;;8.31;80.43;101412.56;5089089;28;20070;-67
2024/03/06 01:56:17;;;;;;;3.88;2.17;;;;;;;8.41;80.23;101421.06;5091585;28;20172;-67
2024/03/06 01:58:45;;;;;;;4.85;2.50;;;;;;;8.52;79.49;101416.13;5084242;28;20574;-67
2024/03/06 02:01:11;;;;;;;3.92;2.22;;;;;;;8.35;80.27;101429.59;5087919;28;20035;-67
2024/03/06 02:03:37;;;;;;;4.55;1.90;;;;;;;8.39;80.35;101420.59;5073518;28;20022;-67
2024/03/06 02:06:02;;;;;;;8.05;2.80;;;;;;;8.29;80.83;101420.16;5099649;28;20101;-67
2024/03/06 02:08:28;;;;;;;5.65;2.45;;;;;;;8.35;81.18;101417.00;5090911;28;20074;-67
2024/03/06 02:10:54;;;;;;;5.00;2.45;;;;;;;8.37;80.82;101417.47;5089383;28;20082;-68
2024/03/06 02:13:21;;;;;;;3.88;2.45;;;;;;;8.35;81.51;101410.81;5105221;27;20736;-67
2024/03/06 02:15:46;;;;;;;4.43;2.70;;;;;;;8.21;81.83;101416.34;5088972;28;20032;-67
2024/03/06 02:18:12;;;;;;;4.43;2.10;;;;;;;8.34;81.43;101412.75;5071142;28;20412;-67
2024/03/06 02:20:41;;;;;;;4.30;2.25;;;;;;;8.30;81.49;101422.53;5105236;27;20128;-67
2024/03/06 02:23:07;;;;;;;5.68;2.78;;;;;;;8.24;82.06;101418.41;5093249;28;20031;-67
2024/03/06 02:25:32;;;;;;;5.97;2.35;;;;;;;8.28;81.68;101422.06;5087442;28;20050;-68
2024/03/06 02:27:58;;;;;;;3.00;1.83;;;;;;;8.15;82.18;101415.75;5087943;28;20032;-67
2024/03/06 02:30:24;;;;;;;5.00;2.30;;;;;;;8.27;81.79;101425.84;5089461;28;20425;-68
2024/03/06 02:32:49;;;;;;;2.78;1.80;;;;;;;8.09;81.74;101419.69;5087238;28;20031;-67
2024/03/06 02:35:15;;;;;;;3.28;2.42;;;;;;;8.11;82.89;101428.22;5088785;28;20047;-68
2024/03/06 02:37:43;;;;;;;3.58;1.80;;;;;;;8.18;82.50;101433.91;5090021;28;20046;-67
2024/03/06 02:40:09;;;;;;;6.43;2.67;;;;;;;8.14;82.34;101434.84;5067973;28;20093;-67
2024/03/06 02:42:38;;;;;;;6.82;2.55;;;;;;;8.23;82.01;101432.94;5104786;27;20035;-68
2024/03/06 02:45:05;;;;;;;3.10;1.77;;;;;;;8.20;81.94;101436.25;5088422;28;20134;-68
2024/03/06 02:47:30;;;;;;;5.93;2.55;;;;;;;8.13;82.78;101434.06;5117476;27;20036;-67
2024/03/06 02:49:56;;;;;;;5.97;2.28;;;;;;;8.09;82.32;101435.78;5092062;28;20027;-68
2024/03/06 02:52:22;;;;;;;3.20;2.10;;;;;;;8.12;82.49;101437.06;5093107;28;20143;-68
2024/03/06 02:54:48;;;;;;;4.60;1.80;;;;;;;8.19;82.54;101431.97;5087341;28;20114;-67
2024/03/06 02:57:13;;;;;;;4.05;2.15;;;;;;;8.12;82.27;101429.00;5087637;28;20119;-67
2024/03/06 02:59:43;;;;;;;2.83;1.85;;;;;;;8.14;82.46;101437.53;5081298;28;20080;-67
2024/03/06 03:02:08;;;;;;;2.65;2.03;;;;;;;8.12;82.13;101435.16;5089509;28;20056;-69
2024/03/06 03:04:33;;;;;;;2.78;2.33;;;;;;;7.98;82.72;101434.56;5090299;28;20058;-68
2024/03/06 03:06:59;;;;;;;5.57;2.65;;;;;;;7.88;82.92;101437.56;5090033;28;20028;-67
2024/03/06 03:09:24;;;;;;;4.18;2.42;;;;;;;7.99;82.67;101436.13;5075137;28;20702;-68
2024/03/06 03:11:50;;;;;;;13.20;2.95;;;;;;;7.95;82.57;101432.53;5090488;28;20030;-68
2024/03/06 03:14:15;;;;;;;3.58;1.88;;;;;;;7.87;82.85;101432.53;5086103;28;20942;-68
2024/03/06 03:16:41;;;;;;;6.10;2.22;;;;;;;7.96;82.05;101430.59;5089220;28;22053;-67
2024/03/06 03:19:08;;;;;;;3.70;2.05;;;;;;;7.93;81.57;101434.72;5088465;28;20028;-67
2024/03/06 03:21:34;;;;;;;3.38;1.95;;;;;;;7.87;81.66;101425.28;5089860;28;20041;-67
2024/03/06 03:23:59;;;;;;;4.75;2.33;;;;;;;7.92;81.44;101432.34;5069153;28;20581;-67
2024/03/06 03:26:25;;;;;;;4.32;2.13;;;;;;;7.81;81.18;101439.16;5088714;28;20111;-68
2024/03/06 03:28:50;;;;;;;5.78;2.22;;;;;;;7.69;81.92;101439.78;5086402;28;20047;-67
2024/03/06 03:31:15;;;;;;;5.38;1.70;;;;;;;7.66;82.15;101431.59;5088545;28;20031;-67
2024/03/06 03:33:41;;;;;;;3.38;1.90;;;;;;;7.51;82.74;101435.50;5091529;28;20460;-67
2024/03/06 03:36:08;;;;;;;5.40;1.75;;;;;;;7.57;82.24;101438.84;5093243;28;20047;-67
2024/03/06 03:38:38;;;;;;;4.05;1.90;;;;;;;7.51;81.94;101442.78;5069041;28;21864;-67
2024/03/06 03:41:06;;;;;;;2.67;1.67;;;;;;;7.50;81.84;101447.34;5102101;27;20042;-67
2024/03/06 03:43:33;;;;;;;3.85;1.95;;;;;;;7.43;82.57;101452.38;5085010;28;20437;-68
2024/03/06 03:45:58;;;;;;;4.18;1.83;;;;;;;7.37;82.32;101455.53;5087670;28;20038;-67
2024/03/06 03:48:24;;;;;;;3.33;1.95;;;;;;;7.43;82.04;101460.44;5084878;28;20028;-68
2024/03/06 03:50:50;;;;;;;4.05;1.95;;;;;;;7.46;81.77;101459.00;5087226;28;20085;-67
2024/03/06 03:53:16;;;;;;;4.22;1.63;;;;;;;7.33;82.19;101463.41;5084694;28;20497;-67
2024/03/06 03:55:41;;;;;;;4.50;2.20;;;;;;;7.35;82.52;101463.06;5085771;28;20093;-67
2024/03/06 03:58:06;;;;;;;6.18;2.00;;;;;;;7.39;81.90;101470.19;5083870;28;20024;-67
2024/03/06 04:00:32;;;;;;;2.22;1.40;;;;;;;7.41;81.14;101468.00;5086841;28;20036;-68
2024/03/06 04:02:58;;;;;;;5.15;1.98;;;;;;;7.39;81.43;101472.88;5089235;28;20422;-67
2024/03/06 04:05:23;;;;;;;2.13;1.42;;;;;;;7.36;81.10;101476.16;5090164;28;20044;-67
2024/03/06 04:07:49;;;;;;;2.25;1.85;;;;;;;7.32;81.54;101474.44;5084441;28;20035;-67
2024/03/06 04:10:14;;;;;;;3.75;1.58;;;;;;;7.29;81.73;101476.63;5086524;28;20700;-67
2024/03/06 04:12:40;;;;;;;3.92;1.67;;;;;;;7.24;81.87;101471.41;5069511;28;20037;-68
2024/03/06 04:15:06;;;;;;;4.03;1.90;;;;;;;7.26;82.00;101479.13;5086688;28;20160;-68
2024/03/06 04:17:31;;;;;;;2.67;1.60;;;;;;;7.14;81.85;101478.94;5086750;28;20496;-68
2024/03/06 04:19:56;;;;;;;2.55;1.60;;;;;;;7.14;81.90;101476.28;5091224;28;20043;-68
2024/03/06 04:22:22;;;;;;;4.78;1.40;;;;;;;7.10;81.94;101478.75;5086407;28;20035;-68
2024/03/06 04:24:47;;;;;;;1.48;1.35;;;;;;;7.18;81.97;101482.59;5083987;28;20044;-68
2024/03/06 04:27:13;;;;;;;1.95;1.50;;;;;;;7.22;81.04;101486.19;5085322;28;20070;-68
2024/03/06 04:29:38;;;;;;;3.65;1.65;;;;;;;7.15;81.63;101478.63;5084435;28;20039;-68
2024/03/06 04:32:04;;;;;;;3.03;1.85;;;;;;;7.14;81.41;101481.63;5069722;28;20101;-68
2024/03/06 04:34:29;;;;;;;4.80;1.90;;;;;;;7.14;81.12;101484.31;5088537;28;20032;-68
2024/03/06 04:36:55;;;;;;;1.92;1.63;;;;;;;7.12;80.50;101478.47;5088498;28;20112;-68
2024/03/06 04:39:21;;;;;;;3.88;1.85;;;;;;;7.07;80.86;101479.41;5082229;28;20595;-68
2024/03/06 04:41:47;;;;;;;3.83;2.05;;;;;;;6.99;81.43;101482.81;5085310;28;20052;-68
2024/03/06 04:44:12;;;;;;;1.38;1.08;;;;;;;6.95;81.30;101484.53;5089753;28;20089;-68
2024/03/06 04:46:38;;;;;;;3.03;1.63;;;;;;;6.98;80.79;101488.50;5084387;28;20036;-68
2024/03/06 04:49:03;;;;;;;4.07;1.67;;;;;;;6.96;80.89;101485.34;5073565;28;20016;-68
2024/03/06 04:51:28;;;;;;;3.55;1.63;;;;;;;6.93;81.33;101492.09;5085827;28;20687;-68
2024/03/06 04:53:54;;;;;;;3.83;1.83;;;;;;;6.90;80.62;101490.03;5086750;28;20035;-68
2024/03/06 04:56:20;;;;;;;2.25;1.50;;;;;;;6.87;80.74;101490.66;5070040;28;20084;-68
2024/03/06 04:58:46;;;;;;;2.90;1.77;;;;;;;6.88;80.75;101497.59;5086101;28;20106;-68
2024/03/06 05:01:12;;;;;;;2.47;1.60;;;;;;;6.92;80.51;101503.91;5083132;28;20106;-68
2024/03/06 05:03:38;;;;;;;2.78;1.77;;;;;;;6.89;79.96;101491.13;5083837;28;20081;-68
2024/03/06 05:06:05;;;;;;;3.22;1.85;;;;;;;6.81;80.70;101489.22;5084079;28;20628;-69
2024/03/06 05:08:30;;;;;;;2.92;1.50;;;;;;;6.76;80.31;101505.41;5085881;28;20028;-68
2024/03/06 05:10:56;;;;;;;2.55;1.67;;;;;;;6.73;80.64;101508.72;5084468;28;20057;-69
2024/03/06 05:13:22;;;;;;;2.25;2.00;;;;;;;6.75;81.27;101505.72;5085347;28;20026;-68
2024/03/06 05:15:47;;;;;;;4.25;1.95;;;;;;;6.77;80.71;101515.03;5081650;28;20040;-68
2024/03/06 05:18:13;;;;;;;3.40;1.70;;;;;;;6.77;80.63;101509.69;5085381;28;20028;-68
2024/03/06 05:20:38;;;;;;;2.60;1.58;;;;;;;6.77;80.81;101515.03;5084804;28;20588;-68
2024/03/06 05:23:04;;;;;;;2.50;1.52;;;;;;;6.71;80.71;101516.25;5092687;28;20044;-68
2024/03/06 05:25:29;;;;;;;4.65;1.77;;;;;;;6.70;80.56;101521.91;5068391;28;20137;-68
2024/03/06 05:27:54;;;;;;;1.88;1.38;;;;;;;6.66;80.58;101524.41;5084835;28;20093;-68
2024/03/06 05:30:20;;;;;;;3.22;1.92;;;;;;;6.66;80.83;101529.75;5069448;28;20073;-68
2024/03/06 05:32:46;;;;;;;3.92;2.20;;;;;;;6.64;81.20;101534.63;5088904;28;20062;-68
2024/03/06 05:35:12;;;;;;;3.97;1.73;;;;;;;6.51;80.66;101535.50;5091865;28;21345;-68
2024/03/06 05:37:38;;;;;;;2.47;1.63;;;;;;;6.55;81.51;101546.38;5086644;28;20118;-69
2024/03/06 05:40:07;;;;;;;3.00;1.80;;;;;;;6.51;80.92;101540.03;5088013;28;20035;-68
2024/03/06 05:42:32;;;;;;;5.25;1.77;;;;;;;6.53;80.96;101546.69;5084506;28;20032;-68
2024/03/06 05:45:04;;;;;;;2.75;1.90;;;;;;;6.56;81.36;101548.75;5085977;28;20094;-68
2024/03/06 05:47:32;;;;;;;3.30;1.67;;;;;;;6.53;81.09;101549.34;5086939;28;20039;-67
2024/03/06 05:49:57;;;;;;;3.25;1.50;;;;;;;6.48;81.71;101557.50;5090455;28;20028;-68
2024/03/06 05:52:23;;;;;;;1.73;1.40;;;;;;;6.52;81.57;101569.19;5087624;28;20044;-67
2024/03/06 05:54:48;;;;;;;5.15;1.88;;;;;;;6.49;81.26;101569.78;5087208;28;20043;-67
2024/03/06 05:57:14;;;;;;;3.08;1.80;;;;;;;6.53;81.30;101569.97;5095833;28;20111;-67
2024/03/06 05:59:40;;;;;;;2.88;1.85;;;;;;;6.55;80.73;101575.78;5093493;28;20027;-67
2024/03/06 06:02:06;;;;;;;4.78;1.70;;;;;;;6.52;80.88;101579.91;5083740;28;20632;-67
2024/03/06 06:04:31;;;;;;;3.63;1.80;;;;;;;6.49;81.15;101577.81;5088588;28;20404;-67
2024/03/06 06:06:57;;;;;;;2.80;1.50;;;;;;;6.45;81.18;101584.06;5092049;28;20036;-67
2024/03/06 06:09:22;;;;;;;4.50;1.80;;;;;;;6.45;80.72;101587.53;5093120;28;20047;-68
2024/03/06 06:11:48;;;;;;;6.13;2.30;;;;;;;6.44;80.82;101582.50;5090326;28;20028;-67
2024/03/06 06:14:14;;;;;;;2.97;1.42;;;;;;;6.45;80.15;101590.22;5091923;28;20028;-67
2024/03/06 06:16:42;;;;;;;2.15;1.60;;;;;;;6.42;80.60;101600.72;5085780;28;20086;-67
2024/03/06 06:19:08;;;;;;;1.83;1.60;;;;;;;6.36;80.32;101608.09;5116578;27;20083;-67
2024/03/06 06:21:35;;;;;;;6.35;2.03;;;;;;;6.39;80.89;101610.16;5093797;28;20024;-67
2024/03/06 06:24:03;;;;;;;3.10;1.65;;;;;;;6.41;81.00;101609.88;5074848;28;20032;-67
2024/03/06 06:26:29;;;;;;;5.60;2.40;;;;;;;6.42;81.49;101609.56;5088827;28;20042;-67
2024/03/06 06:28:55;;;;;;;3.13;1.38;;;;;;;6.42;81.13;101614.09;5080995;28;20060;-68
2024/03/06 06:31:20;;;;;;;2.42;1.35;;;;;;;6.45;81.10;101624.19;5096451;28;20024;-68
2024/03/06 06:33:47;;;;;;;2.25;1.27;;;;;;;6.42;81.19;101622.94;5096928;28;20032;-67
2024/03/06 06:36:12;;;;;;;8.38;1.98;;;;;;;6.45;81.56;101627.66;5113218;27;20351;-67
2024/03/06 06:38:38;;;;;;;1.73;1.58;;;;;;;6.39;81.52;101629.66;5083731;28;20067;-68
2024/03/06 06:41:04;;;;;;;2.10;1.80;;;;;;;6.42;81.56;101633.63;5092984;28;20110;-68
2024/03/06 06:43:30;;;;;;;2.58;1.73;;;;;;;6.46;81.34;101636.47;5087488;28;20077;-68
2024/03/06 06:45:55;;;;;;;2.10;1.42;;;;;;;6.48;81.49;101637.78;5078711;28;20051;-68
2024/03/06 06:48:21;;;;;;;4.75;2.90;;;;;;;6.36;82.10;101645.53;5088873;28;20020;-68
2024/03/06 06:50:47;;;;;;;1.73;1.45;;;;;;;6.45;82.52;101645.59;5071780;28;20523;-68
2024/03/06 06:53:13;;;;;;;3.83;2.28;;;;;;;6.46;82.32;101657.88;5121687;27;20136;-68
2024/03/06 06:55:39;;;;;;;4.07;2.47;;;;;;;6.30;82.59;101650.22;5070572;28;20036;-68
2024/03/06 06:58:04;;;;;;;3.65;1.90;;;;;;;6.34;83.91;101666.44;5087170;28;20039;-68
2024/03/06 07:00:30;;;;;;;2.45;1.63;;;;;;;6.42;83.51;101657.69;5086466;28;20040;-67
2024/03/06 07:02:58;;;;;;;2.67;1.52;;;;;;;6.44;83.90;101660.06;5090045;28;20028;-67
2024/03/06 07:05:24;;;;;;;3.53;1.58;;;;;;;6.61;82.41;101661.00;5082541;28;20162;-67
2024/03/06 07:07:53;;;;;;;2.53;1.70;;;;;;;6.51;82.50;101665.78;5087314;28;20062;-67
2024/03/06 07:10:19;;;;;;;2.00;1.77;;;;;;;6.47;83.15;101670.94;5093586;28;20047;-67
2024/03/06 07:12:44;;;;;;;5.20;2.28;;;;;;;6.49;82.35;101665.28;5088876;28;20038;-67
2024/03/06 07:15:10;;;;;;;4.43;1.95;;;;;;;6.52;82.80;101670.84;5084106;28;20031;-67
2024/03/06 07:17:35;;;;;;;5.88;1.98;;;;;;;6.45;83.53;101670.47;5086570;28;20042;-66
2024/03/06 07:20:01;;;;;;;2.90;1.45;;;;;;;6.46;84.73;101672.06;5088395;28;20135;-67
2024/03/06 07:22:26;;;;;;;4.03;2.22;;;;;;;6.64;84.16;101679.13;5089187;28;20471;-67
2024/03/06 07:24:52;;;;;;;2.88;1.77;;;;;;;6.73;83.31;101677.31;5089144;28;20116;-67
2024/03/06 07:27:18;;;;;;;3.03;1.77;;;;;;;6.83;83.33;101679.75;5083692;28;20089;-67
2024/03/06 07:29:43;;;;;;;4.00;2.13;;;;;;;6.90;83.69;101688.16;5099290;27;20027;-67
2024/03/06 07:32:09;;;;;;;3.30;2.13;;;;;;;6.98;83.17;101689.31;5086988;28;20502;-67
2024/03/06 07:34:35;;;;;;;3.75;1.95;;;;;;;7.17;83.27;101695.25;5069307;28;20855;-67
2024/03/06 07:37:01;;;;;;;4.15;2.05;;;;;;;7.39;82.65;101694.44;5084142;28;20441;-67
2024/03/06 07:39:27;;;;;;;3.15;1.95;;;;;;;7.55;82.03;101703.69;5084964;28;20028;-67
2024/03/06 07:41:52;;;;;;;6.30;2.35;;;;;;;7.69;81.63;101707.03;5086694;28;20028;-67
2024/03/06 07:44:20;;;;;;;2.83;1.83;;;;;;;7.85;81.20;101703.66;5067517;28;20042;-67
2024/03/06 07:46:45;;;;;;;4.05;1.67;;;;;;;8.08;80.01;101715.88;5082676;28;20032;-67
2024/03/06 07:49:10;;;;;;;3.90;2.15;;;;;;;8.24;78.94;101710.88;5087652;28;20028;-67
2024/03/06 07:51:36;;;;;;;2.72;2.20;;;;;;;8.35;78.39;101711.38;5071003;28;20081;-67
2024/03/06 07:54:03;;;;;;;3.50;1.73;;;;;;;8.50;76.65;101719.75;5082799;28;20390;-67
2024/03/06 07:56:29;;;;;;;4.78;2.20;;;;;;;8.58;76.54;101715.50;5086640;28;20032;-67
2024/03/06 07:58:55;;;;;;;3.42;1.60;;;;;;;8.83;75.99;101718.22;5086769;28;20042;-67
2024/03/06 08:01:21;;;;;;;4.18;2.13;;;;;;;9.13;75.31;101723.72;5087073;28;20024;-67
2024/03/06 08:03:47;;;;;;;5.47;2.08;;;;;;;9.31;73.75;101717.22;5087539;28;20459;-67
2024/03/06 08:06:15;;;;;;;2.53;1.85;;;;;;;9.42;73.26;101729.22;5086732;28;20031;-67
2024/03/06 08:08:41;;;;;;;4.30;2.03;;;;;;;9.60;73.03;101720.00;5087971;28;20070;-67
2024/03/06 08:11:07;;;;;;;3.58;2.00;;;;;;;9.78;71.74;101722.28;5082903;28;20020;-67
2024/03/06 08:13:32;;;;;;;3.78;2.00;;;;;;;9.84;70.21;101725.59;5087082;28;20088;-67
2024/03/06 08:15:57;;;;;;;7.22;2.70;;;;;;;9.76;71.05;101724.50;5085945;28;20122;-67
2024/03/06 08:18:23;;;;;;;5.75;2.40;;;;;;;10.14;70.17;101734.50;5070416;28;20106;-67
2024/03/06 08:20:48;;;;;;;4.70;2.40;;;;;;;10.30;68.39;101733.63;5081227;28;20446;-67
2024/03/06 08:23:14;;;;;;;4.47;2.33;;;;;;;10.37;68.19;101744.69;5079755;28;20043;-67
2024/03/06 08:25:39;;;;;;;5.00;2.40;;;;;;;10.55;68.07;101739.97;5084332;28;20047;-67
2024/03/06 08:28:07;;;;;;;6.95;3.25;;;;;;;10.66;67.94;101741.16;5086068;28;20035;-67
2024/03/06 08:30:33;;;;;;;2.92;1.90;;;;;;;10.87;67.37;101752.72;5084266;28;20044;-67
2024/03/06 08:32:58;;;;;;;3.67;1.95;;;;;;;11.12;64.09;101750.91;5083592;28;20020;-67
2024/03/06 08:35:24;;;;;;;3.45;2.10;;;;;;;11.04;63.43;101749.88;5083288;28;20528;-67
2024/03/06 08:37:50;;;;;;;5.90;2.15;;;;;;;11.05;64.63;101758.75;5086707;28;20500;-67
2024/03/06 08:40:20;;;;;;;3.25;2.22;;;;;;;10.98;64.33;101764.66;5080021;28;20039;-67
2024/03/06 08:42:49;;;;;;;3.50;2.10;;;;;;;10.80;65.50;101764.00;5084950;28;20032;-67
2024/03/06 08:45:18;;;;;;;5.10;2.50;;;;;;;11.07;62.78;101767.31;5082779;28;20036;-67
2024/03/06 08:47:44;;;;;;;4.50;2.20;;;;;;;11.08;64.64;101774.25;5082694;28;20452;-67
2024/03/06 08:50:12;;;;;;;3.75;2.50;;;;;;;11.10;64.20;101769.31;5081878;28;20047;-67
2024/03/06 08:52:38;;;;;;;4.70;2.33;;;;;;;11.25;64.40;101777.59;5080567;28;20037;-67
2024/03/06 08:55:06;;;;;;;3.75;2.30;;;;;;;11.46;61.61;101774.84;5085549;28;20051;-67
2024/03/06 08:57:33;;;;;;;3.47;2.13;;;;;;;11.45;61.14;101765.19;5088595;28;20024;-67
2024/03/06 08:59:59;;;;;;;3.88;2.30;;;;;;;11.12;60.90;101769.78;5067642;28;20173;-67
2024/03/06 09:02:25;;;;;;;3.97;2.30;;;;;;;11.02;63.80;101773.66;5072920;28;20039;-67
2024/03/06 09:04:51;;;;;;;4.32;2.08;;;;;;;11.27;61.32;101771.88;5085186;28;20028;-67
2024/03/06 09:07:17;;;;;;;3.40;1.88;;;;;;;11.33;61.88;101779.44;5087142;28;20027;-67
2024/03/06 09:09:43;;;;;;;3.65;2.17;;;;;;;11.41;62.38;101772.38;5083344;28;20047;-67
2024/03/06 09:12:10;;;;;;;4.93;2.83;;;;;;;11.70;61.18;101783.06;5083189;28;20027;-67
2024/03/06 09:14:37;;;;;;;2.97;1.92;;;;;;;11.79;58.05;101783.72;5083544;28;20165;-67
2024/03/06 09:17:03;;;;;;;3.78;1.83;;;;;;;11.46;59.77;101791.84;5085273;28;20031;-67
2024/03/06 09:19:29;;;;;;;3.40;2.00;;;;;;;11.30;59.98;101795.50;5069872;28;20024;-67
2024/03/06 09:21:55;;;;;;;4.13;2.38;;;;;;;11.23;59.67;101798.72;5090191;28;20559;-67
2024/03/06 09:24:22;;;;;;;4.43;2.25;;;;;;;11.20;60.53;101799.38;5088880;28;20084;-67
2024/03/06 09:26:49;;;;;;;5.80;2.35;;;;;;;11.33;60.99;101795.59;5104456;28;20043;-67
2024/03/06 09:29:14;;;;;;;3.17;2.00;;;;;;;11.51;60.09;101793.53;5089529;28;20023;-66
2024/03/06 09:31:41;;;;;;;3.35;1.95;;;;;;;11.59;58.79;101806.16;5083522;28;20135;-67
2024/03/06 09:34:07;;;;;;;4.13;2.00;;;;;;;11.38;60.19;101810.81;5090305;28;20052;-67
2024/03/06 09:36:32;;;;;;;3.75;1.67;;;;;;;11.37;59.28;101809.22;5085374;28;21171;-67
2024/03/06 09:38:59;;;;;;;5.30;2.33;;;;;;;11.63;58.74;101810.53;5088937;28;20028;-67
2024/03/06 09:41:25;;;;;;;3.22;1.90;;;;;;;11.74;56.95;101814.44;5072794;28;20032;-67
2024/03/06 09:43:50;;;;;;;2.85;1.98;;;;;;;11.57;56.26;101809.19;5085183;28;20042;-67
2024/03/06 09:46:17;;;;;;;3.63;2.20;;;;;;;11.54;56.57;101817.13;5088624;28;20032;-67
2024/03/06 09:48:47;;;;;;;6.63;2.42;;;;;;;11.31;54.94;101815.94;5087703;28;20035;-67
2024/03/06 09:51:13;;;;;;;5.25;2.25;;;;;;;11.32;55.46;101812.13;5081894;28;20036;-67
2024/03/06 09:53:40;;;;;;;8.48;2.80;;;;;;;10.96;56.46;101822.69;5091798;28;20039;-67
2024/03/06 09:56:06;;;;;;;5.28;2.50;;;;;;;10.87;57.24;101825.47;5088190;28;20037;-67
2024/03/06 09:58:32;;;;;;;4.45;1.98;;;;;;;10.95;58.33;101821.94;5089440;28;20023;-67
2024/03/06 10:01:03;;;;;;;4.05;2.30;;;;;;;10.99;58.41;101824.75;5085660;28;20024;-67
2024/03/06 10:03:29;;;;;;;;;;;;;;;11.08;58.98;101822.78;5069622;28;20570;-67
2024/03/06 10:05:55;;;;;;;4.57;1.80;;;;;;;11.39;58.04;101821.25;5089627;28;19911;-67
2024/03/06 10:08:21;;;;;;;7.93;3.00;;;;;;;11.65;57.24;101823.72;5089172;28;20038;-67
2024/03/06 10:10:50;;;;;;;6.10;2.40;;;;;;;11.86;57.27;101823.69;5087963;28;20024;-68
2024/03/06 10:13:24;;;;;;;4.72;2.42;;;;;;;12.27;56.79;101826.22;5086912;28;20025;-68
2024/03/06 10:16:03;;;;;;;4.50;2.58;;;;;;;12.45;54.55;101832.97;5120214;27;20521;-67
2024/03/06 10:18:32;;;;;;;4.35;2.50;;;;;;;12.44;55.37;101834.91;5085442;28;20127;-67
2024/03/06 10:20:57;;;;;;;4.25;2.22;;;;;;;12.66;55.84;101839.84;5086514;28;20034;-67
2024/03/06 10:23:24;;;;;;;5.43;2.35;;;;;;;12.72;54.12;101845.03;5071316;28;20024;-67
2024/03/06 10:25:52;;;;;;;5.43;2.78;;;;;;;12.73;54.43;101843.88;5088383;28;20036;-67
2024/03/06 10:28:20;;;;;;;5.63;2.47;;;;;;;12.85;54.21;101843.88;5086480;28;20032;-67
2024/03/06 10:30:46;;;;;;;7.82;2.38;;;;;;;12.88;53.67;101849.38;5062019;28;20337;-67
2024/03/06 10:33:13;;;;;;;5.25;2.03;;;;;;;12.82;52.80;101844.53;5104089;27;20036;-67
2024/03/06 10:35:43;;;;;;;4.68;2.53;;;;;;;12.58;54.20;101848.84;5082115;28;20028;-67
2024/03/06 10:38:13;;;;;;;6.03;2.55;;;;;;;12.86;54.79;101848.16;5087544;28;20036;-67
2024/03/06 10:40:43;;;;;;;5.80;2.28;;;;;;;12.97;54.22;101850.03;5088328;28;20043;-67
2024/03/06 10:43:09;;;;;;;4.75;2.60;;;;;;;12.80;52.88;101846.78;5088460;28;20544;-66
2024/03/06 10:45:49;;;;;;;4.50;2.42;;;;;;;12.69;53.69;101849.97;5086074;28;20425;-68
2024/03/06 10:48:16;;;;;;;8.25;3.10;;;;;;;12.65;53.42;101851.78;5098182;27;20033;-67
2024/03/06 10:50:44;;;;;;;3.95;2.40;;;;;;;12.57;53.42;101847.28;5085790;28;20044;-67
2024/03/06 10:53:14;;;;;;;4.30;2.03;;;;;;;12.58;53.75;101843.44;5106887;27;20077;-67
2024/03/06 10:55:44;;;;;;;6.65;3.08;;;;;;;12.24;53.73;101838.47;5086778;28;20063;-67
2024/03/06 10:58:10;;;;;;;3.55;2.30;;;;;;;12.36;53.88;101852.00;5088238;28;20080;-67
2024/03/06 11:00:44;;;;;;;4.82;2.47;;;;;;;12.06;54.01;101842.50;5081878;28;20066;-67
2024/03/06 11:03:13;;;;;;;5.63;2.97;;;;;;;12.01;54.00;101840.03;5087091;28;20032;-67
2024/03/06 11:05:40;;;;;;;4.05;2.40;;;;;;;11.84;54.89;101842.91;5087002;28;20036;-67
2024/03/06 11:08:10;;;;;;;6.57;2.78;;;;;;;11.86;54.83;101845.28;5084492;28;20112;-67
2024/03/06 11:10:38;;;;;;;4.28;1.98;;;;;;;11.76;55.25;101851.88;5091052;28;20027;-67
2024/03/06 11:13:08;;;;;;;4.45;2.55;;;;;;;11.71;55.32;101844.00;5090845;28;20114;-67
2024/03/06 11:15:33;;;;;;;5.00;2.53;;;;;;;11.79;54.97;101845.81;5099161;27;20560;-67
2024/03/06 11:18:28;;;;;;;3.50;2.13;;;;;;;11.51;55.58;101845.59;5090149;28;20046;-68
2024/03/06 11:20:59;;;;;;;4.57;2.20;;;;;;;11.64;55.68;101851.81;5080673;28;20042;-66
2024/03/06 11:23:25;;;;;;;4.45;2.53;;;;;;;11.63;55.96;101844.84;5085373;28;20704;-67
2024/03/06 11:25:50;;;;;;;6.90;2.45;;;;;;;11.64;55.60;101849.91;5090361;28;20032;-67
2024/03/06 11:28:37;;;;;;;8.18;2.80;;;;;;;11.62;56.37;101852.16;5085651;28;20783;-67